TimeEEST,TemperatureF,Dew PointF,Humidity,Sea Level PressureIn,VisibilityMPH,Wind Direction,Wind SpeedMPH,Gust SpeedMPH,PrecipitationIn,Events,Conditions,WindDirDegrees,DateUTC
12:20 AM,75.2,64.4,69,29.83,-9999.0,NNE,11.5,-,N/A,,Clear,20,2013-06-25 21:20:00
12:50 AM,75.2,64.4,69,29.83,-9999.0,NNE,13.8,-,N/A,,Clear,20,2013-06-25 21:50:00
1:20 AM,77.0,66.2,69,29.83,-9999.0,NE,9.2,-,N/A,,Clear,40,2013-06-25 22:20:00
1:50 AM,75.2,66.2,73,29.83,-9999.0,Variable,10.4,-,N/A,,Clear,0,2013-06-25 22:50:00
2:20 AM,73.4,66.2,78,29.83,-9999.0,NE,10.4,-,N/A,,Clear,40,2013-06-25 23:20:00
2:50 AM,73.4,66.2,78,29.83,-9999.0,NNE,10.4,-,N/A,,Clear,30,2013-06-25 23:50:00
3:00 AM,74,66,71,29.84,6,NNE,10.4,,,,,30,2013-06-26 00:00:00
3:20 AM,73.4,66.2,78,29.86,-9999.0,NE,9.2,-,N/A,,Clear,40,2013-06-26 00:20:00
3:50 AM,73.4,66.2,78,29.86,-9999.0,NE,10.4,-,N/A,,Clear,40,2013-06-26 00:50:00
4:20 AM,73.4,66.2,78,29.86,-9999.0,NNE,9.2,-,N/A,,Clear,30,2013-06-26 01:20:00
4:50 AM,73.4,66.2,78,29.86,-9999.0,NE,9.2,-,N/A,,Clear,40,2013-06-26 01:50:00
5:20 AM,73.4,66.2,78,29.86,-9999.0,NNE,10.4,-,N/A,,Clear,30,2013-06-26 02:20:00
5:50 AM,73.4,66.2,78,29.86,-9999.0,NNE,9.2,-,N/A,,Clear,30,2013-06-26 02:50:00
6:20 AM,73.4,66.2,78,29.86,-9999.0,NNE,10.4,-,N/A,,Clear,20,2013-06-26 03:20:00
6:50 AM,75.2,66.2,73,29.89,-9999.0,NNE,11.5,-,N/A,,Clear,30,2013-06-26 03:50:00
7:20 AM,77.0,64.4,65,29.89,-9999.0,NNE,12.7,-,N/A,,Clear,30,2013-06-26 04:20:00
7:50 AM,77.0,64.4,65,29.89,-9999.0,NE,13.8,-,N/A,,Clear,40,2013-06-26 04:50:00
8:20 AM,78.8,64.4,61,29.89,-9999.0,NNE,15.0,-,N/A,,Clear,30,2013-06-26 05:20:00
8:50 AM,80.6,64.4,58,29.89,-9999.0,NNE,13.8,-,N/A,,Clear,30,2013-06-26 05:50:00
9:00 AM,81,61,40,29.89,6,NNE,13.8,,,,,30,2013-06-26 06:00:00
9:20 AM,80.6,62.6,54,29.89,-9999.0,NNE,17.3,-,N/A,,Clear,30,2013-06-26 06:20:00
9:50 AM,80.6,62.6,54,29.89,-9999.0,NE,17.3,-,N/A,,Clear,40,2013-06-26 06:50:00
10:20 AM,80.6,62.6,54,29.89,-9999.0,NNE,18.4,-,N/A,,Clear,30,2013-06-26 07:20:00
10:50 AM,82.4,59.0,45,29.89,-9999.0,NNE,17.3,28.8,N/A,,Clear,30,2013-06-26 07:50:00
11:20 AM,84.2,60.8,45,29.89,-9999.0,NE,17.3,-,N/A,,Clear,40,2013-06-26 08:20:00
11:50 AM,82.4,59.0,45,29.89,-9999.0,NNE,17.3,28.8,N/A,,Clear,30,2013-06-26 08:50:00
12:20 PM,84.2,57.2,40,29.89,-9999.0,NE,19.6,-,N/A,,Clear,40,2013-06-26 09:20:00
12:50 PM,82.4,57.2,42,29.89,-9999.0,NE,20.7,-,N/A,,Clear,40,2013-06-26 09:50:00
1:20 PM,84.2,57.2,40,29.89,-9999.0,NNE,20.7,-,N/A,,Clear,30,2013-06-26 10:20:00
1:50 PM,84.2,59.0,42,29.89,-9999.0,NNE,20.7,-,N/A,,Clear,30,2013-06-26 10:50:00
2:20 PM,84.2,60.8,45,29.92,-9999.0,NNE,19.6,-,N/A,,Clear,30,2013-06-26 11:20:00
2:50 PM,84.2,60.8,45,29.89,-9999.0,NNE,18.4,-,N/A,,Clear,30,2013-06-26 11:50:00
3:00 PM,84,60,34,29.91,6,NNE,18.4,,,,,30,2013-06-26 12:00:00
3:20 PM,84.2,59.0,42,29.89,-9999.0,NNE,18.4,-,N/A,,Clear,20,2013-06-26 12:20:00
3:50 PM,84.2,60.8,45,29.89,-9999.0,NNE,17.3,-,N/A,,Clear,30,2013-06-26 12:50:00
4:20 PM,84.2,59.0,42,29.89,-9999.0,NNE,18.4,-,N/A,,Clear,30,2013-06-26 13:20:00
4:50 PM,82.4,59.0,45,29.89,-9999.0,NE,18.4,-,N/A,,Clear,40,2013-06-26 13:50:00
5:20 PM,82.4,57.2,42,29.89,-9999.0,NE,17.3,-,N/A,,Clear,40,2013-06-26 14:20:00
5:50 PM,82.4,57.2,42,29.89,-9999.0,NE,17.3,-,N/A,,Clear,40,2013-06-26 14:50:00
6:20 PM,80.6,59.0,48,29.89,-9999.0,NNE,19.6,-,N/A,,Clear,20,2013-06-26 15:20:00
6:50 PM,80.6,59.0,48,29.89,-9999.0,NNE,18.4,-,N/A,,Clear,30,2013-06-26 15:50:00
7:20 PM,78.8,60.8,54,29.89,-9999.0,NE,18.4,-,N/A,,Clear,40,2013-06-26 16:20:00
7:50 PM,78.8,60.8,54,29.92,-9999.0,NNE,18.4,-,N/A,,Clear,30,2013-06-26 16:50:00
8:20 PM,78.8,62.6,57,29.92,-9999.0,NE,16.1,-,N/A,,Clear,40,2013-06-26 17:20:00
8:50 PM,77.0,62.6,61,29.92,-9999.0,NE,13.8,-,N/A,,Clear,40,2013-06-26 17:50:00
9:00 PM,77,62,51,29.92,6,NE,13.8,,,,,40,2013-06-26 18:00:00
9:20 PM,77.0,64.4,65,29.92,-9999.0,NE,15.0,-,N/A,,Clear,40,2013-06-26 18:20:00
9:50 PM,77.0,64.4,65,29.92,-9999.0,NE,12.7,-,N/A,,Clear,50,2013-06-26 18:50:00
10:20 PM,77.0,64.4,65,29.92,-9999.0,NE,12.7,-,N/A,,Clear,50,2013-06-26 19:20:00
10:50 PM,75.2,66.2,73,29.95,-9999.0,NE,12.7,-,N/A,,Clear,50,2013-06-26 19:50:00
11:20 PM,75.2,64.4,69,29.95,-9999.0,NE,12.7,-,N/A,,Clear,50,2013-06-26 20:20:00
11:50 PM,75.2,66.2,73,29.95,-9999.0,NE,11.5,-,N/A,,Clear,40,2013-06-26 20:50:00